createdAt,value
2023-04-09T00:01:29.065Z,98266.72
2023-04-09T00:03:56.672Z,98274.66
2023-04-09T00:06:23.931Z,98267.03
2023-04-09T00:08:51.408Z,98269.03
2023-04-09T00:11:18.928Z,98274.16
2023-04-09T00:13:46.294Z,98261.41
2023-04-09T00:16:13.328Z,98251.97
2023-04-09T00:18:41.575Z,98260.56
2023-04-09T00:21:08.985Z,98254.28
2023-04-09T00:23:36.562Z,98260.41
2023-04-09T00:26:03.959Z,98260.25
2023-04-09T00:28:31.351Z,98252.28
2023-04-09T00:30:58.830Z,98252.47
2023-04-09T00:33:26.544Z,98249.47
2023-04-09T00:35:53.849Z,98252.13
2023-04-09T00:38:21.398Z,98236.56
2023-04-09T00:40:50.070Z,98222.47
2023-04-09T00:43:17.873Z,98230.91
2023-04-09T00:45:45.570Z,98214.34
2023-04-09T00:48:13.713Z,98218.00
2023-04-09T00:50:41.759Z,98225.75
2023-04-09T00:53:09.232Z,98216.50
2023-04-09T00:55:36.910Z,98218.34
2023-04-09T00:58:04.321Z,98212.69
2023-04-09T01:00:32.073Z,98221.66
2023-04-09T01:02:59.242Z,98227.13
2023-04-09T01:06:10.341Z,98211.22
2023-04-09T01:08:58.569Z,98209.88
2023-04-09T01:11:49.345Z,98223.13
2023-04-09T01:14:54.115Z,98220.50
2023-04-09T01:17:46.864Z,98219.03
2023-04-09T01:20:37.364Z,98219.38
2023-04-09T01:23:10.463Z,98208.44
2023-04-09T01:25:59.254Z,98208.75
2023-04-09T01:28:45.261Z,98212.44
2023-04-09T01:31:18.659Z,98218.03
2023-04-09T01:33:46.132Z,98200.97
2023-04-09T01:36:13.553Z,98195.00
2023-04-09T01:38:42.624Z,98203.63
2023-04-09T01:41:23.706Z,98196.97
2023-04-09T01:43:51.043Z,98189.19
2023-04-09T01:46:18.930Z,98199.47
2023-04-09T01:48:46.517Z,98190.66
2023-04-09T01:51:14.009Z,98201.63
2023-04-09T01:53:42.003Z,98185.16
2023-04-09T01:56:09.419Z,98176.72
2023-04-09T01:58:36.762Z,98186.34
2023-04-09T02:01:09.462Z,98175.88
2023-04-09T02:03:40.003Z,98174.06
2023-04-09T02:06:23.965Z,98172.41
2023-04-09T02:08:51.550Z,98180.38
2023-04-09T02:11:19.117Z,98169.28
2023-04-09T02:13:46.183Z,98158.84
2023-04-09T02:16:13.783Z,98170.59
2023-04-09T02:18:41.107Z,98158.97
2023-04-09T02:21:08.538Z,98172.59
2023-04-09T02:23:35.970Z,98171.72
2023-04-09T02:26:03.023Z,98168.72
2023-04-09T02:28:30.897Z,98173.84
2023-04-09T02:30:58.365Z,98164.22
2023-04-09T02:33:25.829Z,98161.88
2023-04-09T02:35:53.131Z,98160.34
2023-04-09T02:38:20.919Z,98166.13
2023-04-09T02:40:48.023Z,98152.34
2023-04-09T02:43:15.594Z,98157.44
2023-04-09T02:45:42.978Z,98146.97
2023-04-09T02:48:10.359Z,98144.72
2023-04-09T02:50:37.942Z,98144.16
2023-04-09T02:53:05.336Z,98154.25
2023-04-09T02:55:32.451Z,98143.59
2023-04-09T02:57:59.592Z,98142.03
2023-04-09T03:00:27.040Z,98146.19
2023-04-09T03:02:55.641Z,98140.53
2023-04-09T03:05:23.455Z,98141.09
2023-04-09T03:07:50.801Z,98126.38
2023-04-09T03:10:18.305Z,98138.97
2023-04-09T03:12:47.911Z,98135.59
2023-04-09T03:15:15.610Z,98143.50
2023-04-09T03:17:42.938Z,98142.34
2023-04-09T03:20:10.972Z,98141.25
2023-04-09T03:26:58.219Z,98131.66
2023-04-09T03:29:26.552Z,98140.56
2023-04-09T03:31:53.930Z,98137.19
2023-04-09T03:34:21.293Z,98137.53
2023-04-09T03:36:53.029Z,98149.88
2023-04-09T03:39:30.683Z,98156.09
2023-04-09T03:41:59.026Z,98145.53
2023-04-09T03:44:30.065Z,98152.41
2023-04-09T03:47:10.140Z,98149.00
2023-04-09T03:49:39.259Z,98164.53
2023-04-09T03:52:17.897Z,98159.78
2023-04-09T03:54:51.779Z,98172.28
2023-04-09T03:57:23.069Z,98161.63
2023-04-09T03:59:52.895Z,98161.69
2023-04-09T04:02:22.922Z,98172.53
2023-04-09T04:04:58.477Z,98164.91
2023-04-09T04:07:30.430Z,98172.63
2023-04-09T04:10:07.307Z,98174.28
2023-04-09T04:12:34.401Z,98174.81
2023-04-09T04:15:09.316Z,98173.47
2023-04-09T04:17:47.738Z,98179.44
2023-04-09T04:20:26.309Z,98184.06
2023-04-09T04:23:01.872Z,98171.03
2023-04-09T04:25:30.469Z,98192.56
2023-04-09T04:27:58.108Z,98186.59
2023-04-09T04:30:35.346Z,98170.69
2023-04-09T04:33:06.406Z,98186.69
2023-04-09T04:35:41.671Z,98179.06
2023-04-09T04:38:16.441Z,98170.63
2023-04-09T04:40:43.620Z,98178.13
2023-04-09T04:43:11.051Z,98159.44
2023-04-09T04:45:38.644Z,98173.13
2023-04-09T04:48:10.590Z,98174.09
2023-04-09T04:50:37.973Z,98168.28
2023-04-09T04:53:08.372Z,98170.13
2023-04-09T04:55:45.196Z,98159.53
2023-04-09T04:58:15.157Z,98159.44
2023-04-09T05:00:50.057Z,98167.25
2023-04-09T05:03:17.785Z,98161.53
2023-04-09T05:05:53.701Z,98155.13
2023-04-09T05:08:22.592Z,98128.03
2023-04-09T05:10:55.732Z,98147.44
2023-04-09T05:13:26.455Z,98157.28
2023-04-09T05:15:54.894Z,98152.06
2023-04-09T05:18:22.007Z,98153.75
2023-04-09T05:20:49.631Z,98144.16
2023-04-09T05:23:18.199Z,98156.59
2023-04-09T05:25:49.680Z,98142.84
2023-04-09T05:28:25.556Z,98147.03
2023-04-09T05:31:03.886Z,98149.31
2023-04-09T05:33:37.746Z,98137.47
2023-04-09T05:36:18.277Z,98137.00
2023-04-09T05:38:48.465Z,98133.28
2023-04-09T05:41:15.939Z,98149.91
2023-04-09T05:44:00.487Z,98151.34
2023-04-09T05:46:29.001Z,98150.84
2023-04-09T05:48:56.810Z,98142.38
2023-04-09T05:51:26.494Z,98129.16
2023-04-09T05:53:55.610Z,98139.59
2023-04-09T05:56:23.164Z,98141.38
2023-04-09T05:58:54.096Z,98129.56
2023-04-09T06:01:21.636Z,98125.19
2023-04-09T06:03:50.405Z,98121.75
2023-04-09T06:06:18.421Z,98120.59
2023-04-09T06:08:45.825Z,98116.75
2023-04-09T06:11:13.779Z,98123.59
2023-04-09T06:13:41.188Z,98137.22
2023-04-09T06:16:08.877Z,98135.47
2023-04-09T06:18:36.876Z,98127.16
2023-04-09T06:21:05.114Z,98129.72
2023-04-09T06:23:33.301Z,98114.81
2023-04-09T06:26:00.353Z,98131.56
2023-04-09T06:28:28.727Z,98110.16
2023-04-09T06:30:56.269Z,98126.66
2023-04-09T06:33:24.247Z,98098.84
2023-04-09T06:35:51.494Z,98122.72
2023-04-09T06:38:18.585Z,98109.53
2023-04-09T06:40:46.105Z,98101.47
2023-04-09T06:43:13.292Z,98101.06
2023-04-09T06:45:48.732Z,98106.69
2023-04-09T06:48:16.553Z,98126.88
2023-04-09T06:50:44.442Z,98123.97
2023-04-09T06:53:11.626Z,98129.25
2023-04-09T06:55:38.794Z,98118.31
2023-04-09T06:58:06.592Z,98125.53
2023-04-09T07:00:33.933Z,98122.69
2023-04-09T07:03:01.406Z,98105.03
2023-04-09T07:05:28.929Z,98126.25
2023-04-09T07:07:56.164Z,98130.97
2023-04-09T07:10:23.530Z,98109.75
2023-04-09T07:12:50.876Z,98105.44
2023-04-09T07:15:18.341Z,98102.31
2023-04-09T07:17:45.751Z,98114.44
2023-04-09T07:20:13.488Z,98117.75
2023-04-09T07:22:41.297Z,98109.16
2023-04-09T07:25:09.320Z,98103.19
2023-04-09T07:27:36.539Z,98116.16
2023-04-09T07:30:04.437Z,98110.38
2023-04-09T07:32:31.827Z,98128.91
2023-04-09T07:34:59.268Z,98128.50
2023-04-09T07:37:27.164Z,98119.41
2023-04-09T07:39:54.923Z,98143.88
2023-04-09T07:42:22.266Z,98121.00
2023-04-09T07:44:49.530Z,98136.84
2023-04-09T07:47:16.676Z,98147.28
2023-04-09T07:49:43.974Z,98147.63
2023-04-09T07:52:11.673Z,98133.84
2023-04-09T07:54:39.340Z,98143.53
2023-04-09T07:57:06.716Z,98164.06
2023-04-09T07:59:34.948Z,98150.03
2023-04-09T08:02:02.206Z,98165.63
2023-04-09T08:04:30.234Z,98154.44
2023-04-09T08:06:57.386Z,98148.25
2023-04-09T08:09:24.816Z,98157.53
2023-04-09T08:11:51.855Z,98180.22
2023-04-09T08:14:19.537Z,98160.38
2023-04-09T08:16:47.303Z,98163.53
2023-04-09T08:19:16.454Z,98188.28
2023-04-09T08:21:44.132Z,98182.16
2023-04-09T08:24:11.920Z,98182.78
2023-04-09T08:26:40.251Z,98184.06
2023-04-09T08:29:08.050Z,98189.06
2023-04-09T08:31:36.579Z,98187.41
2023-04-09T08:34:04.026Z,98188.22
2023-04-09T08:36:32.264Z,98172.19
2023-04-09T08:39:00.396Z,98165.22
2023-04-09T08:41:31.498Z,98166.63
2023-04-09T08:43:59.748Z,98183.75
2023-04-09T08:46:27.490Z,98187.28
2023-04-09T08:48:55.344Z,98194.09
2023-04-09T08:51:24.011Z,98196.75
2023-04-09T08:54:04.013Z,98192.78
2023-04-09T08:56:31.687Z,98188.22
2023-04-09T08:58:58.958Z,98200.00
2023-04-09T09:01:29.960Z,98196.94
2023-04-09T09:04:00.950Z,98195.91
2023-04-09T09:06:33.018Z,98201.69
2023-04-09T09:09:11.059Z,98203.94
2023-04-09T09:11:40.960Z,98188.31
2023-04-09T09:14:15.106Z,98187.91
2023-04-09T09:16:44.564Z,98186.06
2023-04-09T09:19:26.997Z,98192.22
2023-04-09T09:21:58.450Z,98192.25
2023-04-09T09:24:26.333Z,98204.59
2023-04-09T09:26:57.503Z,98194.06
2023-04-09T09:29:25.751Z,98206.22
2023-04-09T09:31:54.338Z,98205.56
2023-04-09T09:34:22.927Z,98209.25
2023-04-09T09:36:50.336Z,98212.72
2023-04-09T09:39:17.530Z,98210.03
2023-04-09T09:41:45.759Z,98203.22
2023-04-09T09:44:13.763Z,98224.22
2023-04-09T09:46:42.284Z,98232.41
2023-04-09T09:49:09.764Z,98235.44
2023-04-09T09:51:39.599Z,98231.09
2023-04-09T09:54:08.062Z,98247.00
2023-04-09T09:56:36.047Z,98238.97
2023-04-09T09:59:07.414Z,98257.84
2023-04-09T10:01:37.869Z,98256.53
2023-04-09T10:04:06.268Z,98276.50
2023-04-09T10:06:38.572Z,98285.94
2023-04-09T10:09:06.836Z,98303.97
2023-04-09T10:11:34.588Z,98305.56
2023-04-09T10:14:01.970Z,98328.63
2023-04-09T10:16:29.529Z,98343.25
2023-04-09T10:18:57.489Z,98357.75
2023-04-09T10:21:43.840Z,98394.78
2023-04-09T10:24:10.916Z,98444.69
2023-04-09T10:26:40.794Z,98417.41
2023-04-09T10:29:15.615Z,98440.38
2023-04-09T10:32:10.296Z,98453.88
2023-04-09T10:34:42.160Z,98427.63
2023-04-09T10:37:15.766Z,98447.84
2023-04-09T10:39:50.658Z,98457.59
2023-04-09T10:42:27.105Z,98466.59
2023-04-09T10:45:10.308Z,98485.13
2023-04-09T10:47:38.169Z,98492.56
2023-04-09T10:50:30.584Z,98499.47
2023-04-09T10:53:00.032Z,98504.13
2023-04-09T10:55:36.282Z,98512.88
2023-04-09T11:03:09.509Z,98536.88
2023-04-09T11:05:40.361Z,98530.59
2023-04-09T11:08:11.972Z,98539.22
2023-04-09T11:10:41.341Z,98539.59
2023-04-09T11:13:13.117Z,98557.59
2023-04-09T11:15:40.901Z,98558.69
2023-04-09T11:18:11.849Z,98587.88
2023-04-09T11:20:38.941Z,98577.78
2023-04-09T11:23:06.450Z,98588.16
2023-04-09T11:25:35.217Z,98590.03
2023-04-09T11:28:03.984Z,98596.94
2023-04-09T11:30:30.932Z,98599.50
2023-04-09T11:32:58.676Z,98605.66
2023-04-09T11:35:25.967Z,98624.59
2023-04-09T11:37:56.114Z,98623.91
2023-04-09T11:40:25.680Z,98625.19
2023-04-09T11:42:54.664Z,98633.53
2023-04-09T11:45:27.786Z,98644.84
2023-04-09T11:47:55.227Z,98647.34
2023-04-09T11:50:22.484Z,98659.88
2023-04-09T11:52:50.253Z,98653.06
2023-04-09T11:55:30.297Z,98663.09
2023-04-09T11:58:00.512Z,98672.97
2023-04-09T12:00:28.267Z,98682.72
2023-04-09T12:03:01.309Z,98684.53
2023-04-09T12:05:30.408Z,98692.16
2023-04-09T12:07:59.943Z,98690.38
2023-04-09T12:10:33.474Z,98700.38
2023-04-09T12:13:08.201Z,98698.72
2023-04-09T12:15:41.186Z,98707.47
2023-04-09T12:18:09.585Z,98711.78
2023-04-09T12:20:39.653Z,98722.50
2023-04-09T12:23:07.444Z,98717.63
2023-04-09T12:25:36.474Z,98730.13
2023-04-09T12:28:04.694Z,98730.97
2023-04-09T12:30:32.962Z,98744.44
2023-04-09T12:33:00.375Z,98753.63
2023-04-09T12:35:28.121Z,98764.34
2023-04-09T12:37:55.214Z,98776.56
2023-04-09T12:40:22.572Z,98780.19
2023-04-09T12:42:50.032Z,98786.16
2023-04-09T12:45:18.469Z,98789.50
2023-04-09T12:47:46.104Z,98802.88
2023-04-09T12:50:13.739Z,98801.34
2023-04-09T12:52:41.133Z,98818.03
2023-04-09T12:55:09.118Z,98815.78
2023-04-09T12:57:37.841Z,98821.06
2023-04-09T13:00:06.112Z,98828.44
2023-04-09T13:02:34.052Z,98822.88
2023-04-09T13:05:01.502Z,98833.59
2023-04-09T13:07:29.525Z,98841.94
2023-04-09T13:09:57.178Z,98848.47
2023-04-09T13:12:24.860Z,98849.69
2023-04-09T13:14:53.851Z,98860.97
2023-04-09T13:17:21.132Z,98868.63
2023-04-09T13:19:48.799Z,98880.75
2023-04-09T13:22:16.077Z,98878.94
2023-04-09T13:24:43.598Z,98877.97
2023-04-09T13:27:11.274Z,98891.31
2023-04-09T13:29:38.766Z,98889.09
2023-04-09T13:32:10.611Z,98894.00
2023-04-09T13:34:38.629Z,98904.28
2023-04-09T13:37:06.089Z,98911.25
2023-04-09T13:39:33.401Z,98916.41
2023-04-09T13:42:05.334Z,98916.41
2023-04-09T13:44:37.502Z,98926.69
2023-04-09T13:47:04.918Z,98933.66
2023-04-09T13:49:32.045Z,98934.91
2023-04-09T13:51:59.655Z,98942.00
2023-04-09T13:54:26.978Z,98944.78
2023-04-09T13:56:54.664Z,98950.91
2023-04-09T13:59:21.904Z,98952.69
2023-04-09T14:01:49.194Z,98949.34
2023-04-09T14:04:16.871Z,98947.78
2023-04-09T14:06:44.218Z,98958.13
2023-04-09T14:09:11.864Z,98964.94
2023-04-09T14:11:38.905Z,98967.59
2023-04-09T14:14:06.773Z,98979.97
2023-04-09T14:16:34.259Z,98989.56
2023-04-09T14:19:01.739Z,98994.03
2023-04-09T14:21:28.971Z,98998.59
2023-04-09T14:23:56.531Z,99001.47
2023-04-09T14:26:24.320Z,99004.25
2023-04-09T14:28:52.047Z,99011.81
2023-04-09T14:31:22.414Z,99015.28
2023-04-09T14:33:50.393Z,99026.00
2023-04-09T14:36:18.071Z,99021.41
2023-04-09T14:38:46.116Z,99022.81
2023-04-09T14:41:13.463Z,99034.81
2023-04-09T14:43:40.565Z,99039.38
2023-04-09T14:46:11.444Z,99046.63
2023-04-09T14:48:39.987Z,99046.19
2023-04-09T14:51:11.130Z,99048.81
2023-04-09T14:53:38.369Z,99049.31
2023-04-09T14:56:06.455Z,99054.03
2023-04-09T14:58:33.778Z,99073.19
2023-04-09T15:01:01.045Z,99076.06
2023-04-09T15:03:28.411Z,99079.94
2023-04-09T15:05:55.795Z,99080.19
2023-04-09T15:08:23.507Z,99078.91
2023-04-09T15:10:51.025Z,99086.34
2023-04-09T15:13:18.670Z,99089.38
2023-04-09T15:15:46.108Z,99103.34
2023-04-09T15:18:13.442Z,99102.03
2023-04-09T15:20:42.042Z,99098.25
2023-04-09T15:23:10.876Z,99111.66
2023-04-09T15:25:38.738Z,99107.41
2023-04-09T15:28:06.128Z,99117.34
2023-04-09T15:30:35.517Z,99132.59
2023-04-09T15:33:03.067Z,99127.31
2023-04-09T15:35:31.429Z,99127.94
2023-04-09T15:37:58.580Z,99146.16
2023-04-09T15:40:25.893Z,99149.06
2023-04-09T15:42:53.140Z,99152.19
2023-04-09T15:45:20.439Z,99157.59
2023-04-09T15:47:48.128Z,99163.69
2023-04-09T15:50:15.592Z,99175.09
2023-04-09T15:52:42.771Z,99168.47
2023-04-09T15:55:11.010Z,99166.59
2023-04-09T15:57:39.153Z,99167.19
2023-04-09T16:00:10.774Z,99170.53
2023-04-09T16:02:38.992Z,99166.81
2023-04-09T16:05:09.344Z,99172.22
2023-04-09T16:07:36.729Z,99176.75
2023-04-09T16:10:04.840Z,99182.16
2023-04-09T16:12:32.762Z,99188.28
2023-04-09T16:15:00.388Z,99189.56
2023-04-09T16:17:27.612Z,99193.28
2023-04-09T16:19:55.137Z,99191.00
2023-04-09T16:22:22.485Z,99199.16
2023-04-09T16:24:49.666Z,99209.25
2023-04-09T16:27:16.826Z,99199.13
2023-04-09T16:29:44.344Z,99210.03
2023-04-09T16:32:11.733Z,99216.50
2023-04-09T16:34:38.713Z,99224.50
2023-04-09T16:37:06.207Z,99226.66
2023-04-09T16:39:33.658Z,99231.56
2023-04-09T16:42:01.553Z,99241.41
2023-04-09T16:44:29.081Z,99248.78
2023-04-09T16:46:56.302Z,99257.03
2023-04-09T16:49:23.613Z,99258.00
2023-04-09T16:51:53.019Z,99255.59
2023-04-09T16:54:20.849Z,99258.22
2023-04-09T16:56:48.851Z,99260.34
2023-04-09T16:59:18.155Z,99264.03
2023-04-09T17:01:45.582Z,99272.28
2023-04-09T17:04:12.842Z,99275.88
2023-04-09T17:06:40.347Z,99280.81
2023-04-09T17:09:07.687Z,99283.31
2023-04-09T17:11:35.587Z,99284.16
2023-04-09T17:14:02.950Z,99281.34
2023-04-09T17:16:30.576Z,99289.72
2023-04-09T17:18:57.765Z,99282.78
2023-04-09T17:21:26.176Z,99288.66
2023-04-09T17:23:53.521Z,99284.22
2023-04-09T17:26:20.776Z,99287.47
2023-04-09T17:28:48.146Z,99291.66
2023-04-09T17:31:16.093Z,99292.50
2023-04-09T17:33:47.708Z,99291.66
2023-04-09T17:36:17.333Z,99292.50
2023-04-09T17:38:45.132Z,99290.84
2023-04-09T17:41:12.694Z,99289.78
2023-04-09T17:43:39.995Z,99281.97
2023-04-09T17:46:10.005Z,99297.78
2023-04-09T17:48:37.062Z,99294.94
2023-04-09T17:51:06.177Z,99291.97
2023-04-09T17:53:33.760Z,99290.06
2023-04-09T17:56:03.613Z,99288.41
2023-04-09T17:58:31.252Z,99292.50
2023-04-09T18:00:59.620Z,99289.25
2023-04-09T18:03:26.964Z,99296.66
2023-04-09T18:05:54.630Z,99293.16
2023-04-09T18:08:22.174Z,99296.56
2023-04-09T18:11:04.940Z,99303.84
2023-04-09T18:13:36.354Z,99303.47
2023-04-09T18:16:03.862Z,99308.13
2023-04-09T18:18:31.222Z,99309.16
2023-04-09T18:20:58.867Z,99302.31
2023-04-09T18:23:26.765Z,99297.16
2023-04-09T18:25:54.141Z,99305.06
2023-04-09T18:28:21.980Z,99316.91
2023-04-09T18:30:49.389Z,99320.22
2023-04-09T18:33:16.638Z,99324.41
2023-04-09T18:35:44.017Z,99317.66
2023-04-09T18:38:11.096Z,99316.47
2023-04-09T18:40:42.873Z,99315.06
2023-04-09T18:43:11.305Z,99306.69
2023-04-09T18:45:41.609Z,99300.75
2023-04-09T18:48:09.111Z,99298.38
2023-04-09T18:50:36.816Z,99304.38
2023-04-09T18:53:05.318Z,99300.56
2023-04-09T18:55:32.634Z,99299.88
2023-04-09T18:58:00.261Z,99295.94
2023-04-09T19:00:27.600Z,99293.19
2023-04-09T19:02:55.100Z,99294.97
2023-04-09T19:05:22.529Z,99287.16
2023-04-09T19:07:49.617Z,99294.16
2023-04-09T19:10:16.965Z,99289.72
2023-04-09T19:12:50.666Z,99290.75
2023-04-09T19:15:18.020Z,99290.66
2023-04-09T19:17:45.242Z,99282.41
2023-04-09T19:20:13.662Z,99271.47
2023-04-09T19:22:41.125Z,99269.44
2023-04-09T19:25:09.834Z,99274.59
2023-04-09T19:27:38.345Z,99277.88
2023-04-09T19:30:06.380Z,99272.59
2023-04-09T19:32:33.961Z,99269.00
2023-04-09T19:35:01.909Z,99268.75
2023-04-09T19:37:30.458Z,99273.06
2023-04-09T19:39:58.558Z,99282.41
2023-04-09T19:42:28.679Z,99280.50
2023-04-09T19:44:56.064Z,99280.63
2023-04-09T19:47:23.113Z,99277.38
2023-04-09T19:49:50.980Z,99280.88
2023-04-09T19:52:18.031Z,99285.16
2023-04-09T19:54:46.166Z,99290.06
2023-04-09T19:57:15.082Z,99300.34
2023-04-09T19:59:42.240Z,99297.69
2023-04-09T20:02:09.292Z,99291.91
2023-04-09T20:04:36.755Z,99296.09
2023-04-09T20:07:04.061Z,99295.69
2023-04-09T20:09:32.308Z,99290.06
2023-04-09T20:12:04.144Z,99290.16
2023-04-09T20:14:31.518Z,99288.38
2023-04-09T20:16:59.280Z,99288.72
2023-04-09T20:19:27.139Z,99284.59
2023-04-09T20:21:54.764Z,99292.38
2023-04-09T20:24:22.864Z,99288.47
2023-04-09T20:26:50.999Z,99285.97
2023-04-09T20:29:18.972Z,99289.16
2023-04-09T20:31:46.314Z,99291.38
2023-04-09T20:34:13.770Z,99291.63
2023-04-09T20:36:43.417Z,99293.31
2023-04-09T20:39:11.394Z,99296.28
2023-04-09T20:41:38.727Z,99293.25
2023-04-09T20:44:06.702Z,99293.91
2023-04-09T20:46:34.394Z,99290.75
2023-04-09T20:49:03.519Z,99290.47
2023-04-09T20:51:30.546Z,99294.16
2023-04-09T20:53:59.409Z,99283.13
2023-04-09T20:56:26.565Z,99292.81
2023-04-09T20:58:57.293Z,99289.53
2023-04-09T21:01:27.097Z,99290.69
2023-04-09T21:03:54.677Z,99283.13
2023-04-09T21:06:22.192Z,99281.97
2023-04-09T21:08:49.753Z,99281.47
2023-04-09T21:11:16.911Z,99278.22
2023-04-09T21:13:53.728Z,99281.34
2023-04-09T21:16:22.744Z,99270.94
2023-04-09T21:18:50.629Z,99276.22
2023-04-09T21:21:18.553Z,99271.38
2023-04-09T21:23:46.191Z,99270.00
2023-04-09T21:26:14.997Z,99267.59
2023-04-09T21:28:43.023Z,99276.66
2023-04-09T21:31:11.324Z,99283.09
2023-04-09T21:33:41.410Z,99279.50
2023-04-09T21:36:08.980Z,99276.97
2023-04-09T21:38:36.465Z,99280.53
2023-04-09T21:41:03.784Z,99276.97
2023-04-09T21:43:31.096Z,99276.44
2023-04-09T21:45:58.690Z,99278.13
2023-04-09T21:48:30.283Z,99279.78
2023-04-09T21:51:01.164Z,99277.53
2023-04-09T21:53:31.177Z,99274.28
2023-04-09T21:55:58.453Z,99258.59
2023-04-09T21:58:25.728Z,99265.53
2023-04-09T22:00:52.961Z,99254.47
2023-04-09T22:03:21.798Z,99258.72
2023-04-09T22:05:49.340Z,99256.81
2023-04-09T22:08:16.581Z,99249.88
2023-04-09T22:10:43.905Z,99248.50
2023-04-09T22:13:11.018Z,99234.97
2023-04-09T22:15:38.566Z,99239.22
2023-04-09T22:18:05.886Z,99245.31
2023-04-09T22:20:33.496Z,99244.34
2023-04-09T22:23:00.563Z,99240.88
2023-04-09T22:25:34.798Z,99247.59
2023-04-09T22:28:02.099Z,99237.41
2023-04-09T22:30:29.919Z,99236.47
2023-04-09T22:32:57.487Z,99228.75
2023-04-09T22:35:24.834Z,99222.78
2023-04-09T22:37:52.808Z,99226.25
2023-04-09T22:40:20.051Z,99227.09
2023-04-09T22:42:47.956Z,99227.44
2023-04-09T22:45:15.710Z,99228.50
2023-04-09T22:47:43.200Z,99231.25
2023-04-09T22:50:11.322Z,99232.81
2023-04-09T22:52:38.421Z,99228.72
2023-04-09T22:55:06.296Z,99235.03
2023-04-09T22:57:33.892Z,99229.97
2023-04-09T23:00:01.409Z,99235.22
2023-04-09T23:02:29.286Z,99227.25
2023-04-09T23:04:56.666Z,99230.63
2023-04-09T23:07:23.793Z,99224.72
2023-04-09T23:09:54.873Z,99226.00
2023-04-09T23:12:22.235Z,99224.09
2023-04-09T23:14:49.497Z,99221.47
2023-04-09T23:17:17.223Z,99218.56
2023-04-09T23:19:45.201Z,99225.50
2023-04-09T23:22:12.470Z,99228.69
2023-04-09T23:24:39.636Z,99229.09
2023-04-09T23:27:06.735Z,99224.44
2023-04-09T23:29:34.540Z,99216.56
2023-04-09T23:32:02.665Z,99216.56
2023-04-09T23:34:30.526Z,99208.97
2023-04-09T23:36:57.941Z,99217.69
2023-04-09T23:39:25.303Z,99219.09
2023-04-09T23:41:52.522Z,99222.09
2023-04-09T23:44:19.934Z,99225.16
2023-04-09T23:46:47.515Z,99219.13
2023-04-09T23:49:15.908Z,99214.72
2023-04-09T23:51:43.185Z,99207.56
2023-04-09T23:54:10.263Z,99213.59
2023-04-09T23:56:37.383Z,99205.28
2023-04-09T23:59:04.667Z,99195.69
